sensor_id;sensor_type;location;lat;lon;timestamp;pressure;altitude;pressure_sealevel;temperature;humidity
61908;BME280;47864;52.526;19.672;2023-07-13T00:01:01;154139.34;;;20.51;100.00
61908;BME280;47864;52.526;19.672;2023-07-13T00:03:04;154167.38;;;20.62;100.00
61908;BME280;47864;52.526;19.672;2023-07-13T00:05:06;154148.28;;;20.55;100.00
61908;BME280;47864;52.526;19.672;2023-07-13T00:07:08;154140.63;;;20.51;100.00
61908;BME280;47864;52.526;19.672;2023-07-13T00:09:18;154159.72;;;20.59;100.00
61908;BME280;47864;52.526;19.672;2023-07-13T00:11:19;154159.72;;;20.59;100.00
61908;BME280;47864;52.526;19.672;2023-07-13T00:13:21;154139.34;;;20.51;100.00
61908;BME280;47864;52.526;19.672;2023-07-13T00:15:25;154069.34;;;20.23;100.00
61908;BME280;47864;52.526;19.672;2023-07-13T00:17:28;154068.06;;;20.23;100.00
61908;BME280;47864;52.526;19.672;2023-07-13T00:19:30;154085.88;;;20.30;100.00
61908;BME280;47864;52.526;19.672;2023-07-13T00:21:32;154074.44;;;20.25;100.00
61908;BME280;47864;52.526;19.672;2023-07-13T00:23:38;154085.88;;;20.30;100.00
61908;BME280;47864;52.526;19.672;2023-07-13T00:25:41;154068.06;;;20.23;100.00
61908;BME280;47864;52.526;19.672;2023-07-13T00:27:43;154046.41;;;20.14;100.00
61908;BME280;47864;52.526;19.672;2023-07-13T00:29:45;154017.13;;;20.02;100.00
61908;BME280;47864;52.526;19.672;2023-07-13T00:31:46;153982.78;;;19.89;100.00
61908;BME280;47864;52.526;19.672;2023-07-13T00:33:48;153984.06;;;19.89;100.00
61908;BME280;47864;52.526;19.672;2023-07-13T00:35:50;153968.81;;;19.83;100.00
61908;BME280;47864;52.526;19.672;2023-07-13T00:37:51;153939.53;;;19.71;100.00
61908;BME280;47864;52.526;19.672;2023-07-13T00:39:53;153961.16;;;19.80;100.00
61908;BME280;47864;52.526;19.672;2023-07-13T00:41:54;153993.00;;;19.93;100.00
61908;BME280;47864;52.526;19.672;2023-07-13T00:43:56;153980.25;;;19.88;100.00
61908;BME280;47864;52.526;19.672;2023-07-13T00:48:02;153986.63;;;19.90;100.00
61908;BME280;47864;52.526;19.672;2023-07-13T00:50:07;153995.50;;;19.94;100.00
61908;BME280;47864;52.526;19.672;2023-07-13T00:52:09;153996.78;;;19.94;100.00
61908;BME280;47864;52.526;19.672;2023-07-13T00:54:14;153925.56;;;19.66;100.00
61908;BME280;47864;52.526;19.672;2023-07-13T00:56:16;153925.56;;;19.66;100.00
61908;BME280;47864;52.526;19.672;2023-07-13T00:58:18;153948.47;;;19.75;100.00
61908;BME280;47864;52.526;19.672;2023-07-13T01:00:20;153986.63;;;19.90;100.00
61908;BME280;47864;52.526;19.672;2023-07-13T01:02:24;153956.06;;;19.78;100.00
61908;BME280;47864;52.526;19.672;2023-07-13T01:04:26;153933.16;;;19.69;100.00
61908;BME280;47864;52.526;19.672;2023-07-13T01:06:28;153928.09;;;19.67;100.00
61908;BME280;47864;52.526;19.672;2023-07-13T01:08:29;153917.91;;;19.63;100.00
61908;BME280;47864;52.526;19.672;2023-07-13T01:10:31;153942.09;;;19.72;100.00
61908;BME280;47864;52.526;19.672;2023-07-13T01:12:33;153928.09;;;19.67;100.00
61908;BME280;47864;52.526;19.672;2023-07-13T01:14:35;153916.63;;;19.62;100.00
61908;BME280;47864;52.526;19.672;2023-07-13T01:16:37;153925.56;;;19.66;100.00
61908;BME280;47864;52.526;19.672;2023-07-13T01:18:39;153892.47;;;19.53;100.00
61908;BME280;47864;52.526;19.672;2023-07-13T01:20:46;153879.75;;;19.48;100.00
61908;BME280;47864;52.526;19.672;2023-07-13T01:22:48;153875.88;;;19.46;100.00
61908;BME280;47864;52.526;19.672;2023-07-13T01:24:50;153889.94;;;19.52;100.00
61908;BME280;47864;52.526;19.672;2023-07-13T01:26:52;153877.16;;;19.47;100.00
61908;BME280;47864;52.526;19.672;2023-07-13T01:28:53;153788.13;;;19.11;100.00
61908;BME280;47864;52.526;19.672;2023-07-13T01:30:57;153855.53;;;19.38;100.00
61908;BME280;47864;52.526;19.672;2023-07-13T01:32:58;153826.31;;;19.26;100.00
61908;BME280;47864;52.526;19.672;2023-07-13T01:35:00;153795.75;;;19.14;100.00
61908;BME280;47864;52.526;19.672;2023-07-13T01:37:01;153826.31;;;19.26;100.00
61908;BME280;47864;52.526;19.672;2023-07-13T01:39:03;153849.16;;;19.35;100.00
61908;BME280;47864;52.526;19.672;2023-07-13T01:41:04;153823.75;;;19.25;100.00
61908;BME280;47864;52.526;19.672;2023-07-13T01:43:06;153798.31;;;19.15;100.00
61908;BME280;47864;52.526;19.672;2023-07-13T01:45:08;153840.28;;;19.32;100.00
61908;BME280;47864;52.526;19.672;2023-07-13T01:47:10;153849.16;;;19.35;100.00
61908;BME280;47864;52.526;19.672;2023-07-13T01:49:12;153856.81;;;19.38;100.00
61908;BME280;47864;52.526;19.672;2023-07-13T01:51:15;153823.75;;;19.25;100.00
61908;BME280;47864;52.526;19.672;2023-07-13T01:53:17;153816.09;;;19.22;100.00
61908;BME280;47864;52.526;19.672;2023-07-13T01:55:19;153831.34;;;19.28;100.00
61908;BME280;47864;52.526;19.672;2023-07-13T01:57:21;153828.81;;;19.27;100.00
61908;BME280;47864;52.526;19.672;2023-07-13T01:59:22;153807.22;;;19.19;100.00
61908;BME280;47864;52.526;19.672;2023-07-13T02:01:24;153786.84;;;19.11;100.00
61908;BME280;47864;52.526;19.672;2023-07-13T02:03:25;153833.91;;;19.29;100.00
61908;BME280;47864;52.526;19.672;2023-07-13T02:05:27;153804.69;;;19.18;100.00
61908;BME280;47864;52.526;19.672;2023-07-13T02:07:29;153776.69;;;19.07;100.00
61908;BME280;47864;52.526;19.672;2023-07-13T02:09:30;153770.31;;;19.04;100.00
61908;BME280;47864;52.526;19.672;2023-07-13T02:11:33;153760.16;;;19.00;100.00
61908;BME280;47864;52.526;19.672;2023-07-13T02:13:34;153744.94;;;18.94;100.00
61908;BME280;47864;52.526;19.672;2023-07-13T02:15:38;153762.72;;;19.01;100.00
61908;BME280;47864;52.526;19.672;2023-07-13T02:17:40;153769.03;;;19.04;100.00
61908;BME280;47864;52.526;19.672;2023-07-13T02:19:42;153762.72;;;19.01;100.00
61908;BME280;47864;52.526;19.672;2023-07-13T02:21:43;153760.16;;;19.00;100.00
61908;BME280;47864;52.526;19.672;2023-07-13T02:23:45;153780.53;;;19.08;100.00
61908;BME280;47864;52.526;19.672;2023-07-13T02:25:46;153805.97;;;19.18;100.00
61908;BME280;47864;52.526;19.672;2023-07-13T02:27:48;153816.09;;;19.22;100.00
61908;BME280;47864;52.526;19.672;2023-07-13T02:29:49;153813.56;;;19.21;100.00
61908;BME280;47864;52.526;19.672;2023-07-13T02:31:50;153833.91;;;19.29;100.00
61908;BME280;47864;52.526;19.672;2023-07-13T02:33:52;153816.09;;;19.22;100.00
61908;BME280;47864;52.526;19.672;2023-07-13T02:35:53;153791.94;;;19.13;100.00
61908;BME280;47864;52.526;19.672;2023-07-13T02:37:55;153764.00;;;19.02;100.00
61908;BME280;47864;52.526;19.672;2023-07-13T02:39:56;153807.22;;;19.19;100.00
61908;BME280;47864;52.526;19.672;2023-07-13T02:41:59;153802.13;;;19.17;100.00
61908;BME280;47864;52.526;19.672;2023-07-13T02:44:02;153839.00;;;19.31;100.00
61908;BME280;47864;52.526;19.672;2023-07-13T02:46:04;153831.34;;;19.28;100.00
61908;BME280;47864;52.526;19.672;2023-07-13T02:48:05;153872.06;;;19.45;100.00
61908;BME280;47864;52.526;19.672;2023-07-13T02:50:07;153869.50;;;19.44;100.00
61908;BME280;47864;52.526;19.672;2023-07-13T02:52:09;153860.63;;;19.40;100.00
61908;BME280;47864;52.526;19.672;2023-07-13T02:54:10;153900.09;;;19.56;100.00
61908;BME280;47864;52.526;19.672;2023-07-13T02:56:12;153887.41;;;19.51;100.00
61908;BME280;47864;52.526;19.672;2023-07-13T02:58:14;153884.84;;;19.50;100.00
61908;BME280;47864;52.526;19.672;2023-07-13T03:00:16;153905.22;;;19.58;100.00
61908;BME280;47864;52.526;19.672;2023-07-13T03:02:17;153900.09;;;19.56;100.00
61908;BME280;47864;52.526;19.672;2023-07-13T03:04:19;153893.72;;;19.53;100.00
61908;BME280;47864;52.526;19.672;2023-07-13T03:06:20;153911.53;;;19.60;100.00
61908;BME280;47864;52.526;19.672;2023-07-13T03:08:22;153893.72;;;19.53;100.00
61908;BME280;47864;52.526;19.672;2023-07-13T03:10:23;153867.00;;;19.43;100.00
61908;BME280;47864;52.526;19.672;2023-07-13T03:12:25;153842.84;;;19.33;100.00
61908;BME280;47864;52.526;19.672;2023-07-13T03:14:27;153827.59;;;19.27;100.00
61908;BME280;47864;52.526;19.672;2023-07-13T03:16:29;153865.72;;;19.42;100.00
61908;BME280;47864;52.526;19.672;2023-07-13T03:18:30;153851.72;;;19.36;100.00
61908;BME280;47864;52.526;19.672;2023-07-13T03:20:33;153836.47;;;19.30;100.00
61908;BME280;47864;52.526;19.672;2023-07-13T03:22:35;153831.34;;;19.28;100.00
61908;BME280;47864;52.526;19.672;2023-07-13T03:24:37;153798.31;;;19.15;100.00
61908;BME280;47864;52.526;19.672;2023-07-13T03:26:40;153767.78;;;19.03;100.00
61908;BME280;47864;52.526;19.672;2023-07-13T03:28:42;153742.38;;;18.93;100.00
61908;BME280;47864;52.526;19.672;2023-07-13T03:30:44;153701.69;;;18.77;100.00
61908;BME280;47864;52.526;19.672;2023-07-13T03:32:45;153683.84;;;18.70;100.00
61908;BME280;47864;52.526;19.672;2023-07-13T03:34:47;153714.38;;;18.82;100.00
61908;BME280;47864;52.526;19.672;2023-07-13T03:36:48;153702.97;;;18.77;100.00
61908;BME280;47864;52.526;19.672;2023-07-13T03:38:52;153741.09;;;18.92;100.00
61908;BME280;47864;52.526;19.672;2023-07-13T03:40:54;153723.31;;;18.85;100.00
61908;BME280;47864;52.526;19.672;2023-07-13T03:42:55;153725.81;;;18.86;100.00
61908;BME280;47864;52.526;19.672;2023-07-13T03:44:57;153685.13;;;18.70;100.00
61908;BME280;47864;52.526;19.672;2023-07-13T03:46:58;153661.00;;;18.60;100.00
61908;BME280;47864;52.526;19.672;2023-07-13T03:49:01;153691.50;;;18.73;100.00
61908;BME280;47864;52.526;19.672;2023-07-13T03:51:02;153658.47;;;18.59;100.00
61908;BME280;47864;52.526;19.672;2023-07-13T03:53:04;153706.75;;;18.79;100.00
61908;BME280;47864;52.526;19.672;2023-07-13T03:55:06;153734.72;;;18.90;100.00
61908;BME280;47864;52.526;19.672;2023-07-13T03:57:08;153729.63;;;18.88;100.00
61908;BME280;47864;52.526;19.672;2023-07-13T03:59:09;153748.69;;;18.95;100.00
61908;BME280;47864;52.526;19.672;2023-07-13T04:01:12;153764.00;;;19.02;100.00
61908;BME280;47864;52.526;19.672;2023-07-13T04:03:14;153770.31;;;19.04;100.00
61908;BME280;47864;52.526;19.672;2023-07-13T04:05:15;153794.50;;;19.14;100.00
61908;BME280;47864;52.526;19.672;2023-07-13T04:07:17;153812.28;;;19.21;100.00
61908;BME280;47864;52.526;19.672;2023-07-13T04:09:19;153827.59;;;19.27;100.00
61908;BME280;47864;52.526;19.672;2023-07-13T04:11:22;153845.38;;;19.34;100.00
61908;BME280;47864;52.526;19.672;2023-07-13T04:13:24;153841.56;;;19.32;100.00
61908;BME280;47864;52.526;19.672;2023-07-13T04:15:29;153840.28;;;19.32;100.00
61908;BME280;47864;52.526;19.672;2023-07-13T04:17:31;153878.47;;;19.47;100.00
61908;BME280;47864;52.526;19.672;2023-07-13T04:19:33;153897.56;;;19.55;100.00
61908;BME280;47864;52.526;19.672;2023-07-13T04:21:34;153897.56;;;19.55;100.00
61908;BME280;47864;52.526;19.672;2023-07-13T04:23:39;153917.91;;;19.63;100.00
61908;BME280;47864;52.526;19.672;2023-07-13T04:25:44;153920.47;;;19.64;100.00
61908;BME280;47864;52.526;19.672;2023-07-13T04:27:46;153936.97;;;19.70;100.00
61908;BME280;47864;52.526;19.672;2023-07-13T04:29:47;153891.19;;;19.52;100.00
61908;BME280;47864;52.526;19.672;2023-07-13T04:31:48;153944.63;;;19.73;100.00
61908;BME280;47864;52.526;19.672;2023-07-13T04:33:50;153935.72;;;19.70;100.00
61908;BME280;47864;52.526;19.672;2023-07-13T04:35:53;153978.97;;;19.87;100.00
61908;BME280;47864;52.526;19.672;2023-07-13T04:37:55;154013.34;;;20.01;100.00
61908;BME280;47864;52.526;19.672;2023-07-13T04:39:57;154061.69;;;20.20;100.00
61908;BME280;47864;52.526;19.672;2023-07-13T04:41:58;154075.72;;;20.26;100.00
61908;BME280;47864;52.526;19.672;2023-07-13T04:43:59;154088.41;;;20.31;100.00
61908;BME280;47864;52.526;19.672;2023-07-13T04:46:06;154126.63;;;20.46;100.00
61908;BME280;47864;52.526;19.672;2023-07-13T04:48:09;154213.19;;;20.80;100.00
61908;BME280;47864;52.526;19.672;2023-07-13T04:50:13;154253.94;;;20.97;100.00
61908;BME280;47864;52.526;19.672;2023-07-13T04:52:15;154274.31;;;21.05;100.00
61908;BME280;47864;52.526;19.672;2023-07-13T04:54:16;154301.06;;;21.15;100.00
61908;BME280;47864;52.526;19.672;2023-07-13T04:56:18;154315.09;;;21.21;100.00
61908;BME280;47864;52.526;19.672;2023-07-13T04:58:20;154341.88;;;21.32;100.00
61908;BME280;47864;52.526;19.672;2023-07-13T05:00:21;154353.31;;;21.36;100.00
61908;BME280;47864;52.526;19.672;2023-07-13T05:02:23;154364.78;;;21.41;100.00
61908;BME280;47864;52.526;19.672;2023-07-13T05:04:24;154376.22;;;21.45;100.00
61908;BME280;47864;52.526;19.672;2023-07-13T05:06:26;154355.84;;;21.37;100.00
61908;BME280;47864;52.526;19.672;2023-07-13T05:08:27;154392.78;;;21.52;100.00
61908;BME280;47864;52.526;19.672;2023-07-13T05:10:29;154371.13;;;21.43;100.00
61908;BME280;47864;52.526;19.672;2023-07-13T05:12:30;154367.28;;;21.42;100.00
61908;BME280;47864;52.526;19.672;2023-07-13T05:14:32;154395.31;;;21.53;100.00
61908;BME280;47864;52.526;19.672;2023-07-13T05:16:33;154404.28;;;21.56;100.00
61908;BME280;47864;52.526;19.672;2023-07-13T05:18:35;154478.13;;;21.86;100.00
61908;BME280;47864;52.526;19.672;2023-07-13T05:20:39;154487.06;;;21.89;100.00
61908;BME280;47864;52.526;19.672;2023-07-13T05:22:41;154498.50;;;21.94;100.00
61908;BME280;47864;52.526;19.672;2023-07-13T05:24:42;154544.44;;;22.12;100.00
61908;BME280;47864;52.526;19.672;2023-07-13T05:26:44;154573.72;;;22.24;100.00
61908;BME280;47864;52.526;19.672;2023-07-13T05:28:46;154502.34;;;21.95;100.00
61908;BME280;47864;52.526;19.672;2023-07-13T05:30:49;154529.16;;;22.06;100.00
61908;BME280;47864;52.526;19.672;2023-07-13T05:32:51;154590.31;;;22.30;100.00
61908;BME280;47864;52.526;19.672;2023-07-13T05:34:52;154581.38;;;22.27;100.00
61908;BME280;47864;52.526;19.672;2023-07-13T05:36:54;154569.94;;;22.22;100.00
61908;BME280;47864;52.526;19.672;2023-07-13T05:38:55;154632.38;;;22.47;100.00
61908;BME280;47864;52.526;19.672;2023-07-13T05:40:57;154600.47;;;22.34;100.00
61908;BME280;47864;52.526;19.672;2023-07-13T05:42:59;154573.72;;;22.24;100.00
61908;BME280;47864;52.526;19.672;2023-07-13T05:45:00;154575.00;;;22.24;100.00
61908;BME280;47864;52.526;19.672;2023-07-13T05:47:02;154539.31;;;22.10;100.00
61908;BME280;47864;52.526;19.672;2023-07-13T05:49:03;154558.44;;;22.18;100.00
61908;BME280;47864;52.526;19.672;2023-07-13T05:51:05;154567.38;;;22.21;100.00
61908;BME280;47864;52.526;19.672;2023-07-13T05:53:06;154548.25;;;22.14;100.00
61908;BME280;47864;52.526;19.672;2023-07-13T05:55:08;154508.78;;;21.98;100.00
61908;BME280;47864;52.526;19.672;2023-07-13T05:57:10;154517.66;;;22.01;100.00
61908;BME280;47864;52.526;19.672;2023-07-13T05:59:12;154569.94;;;22.22;100.00
61908;BME280;47864;52.526;19.672;2023-07-13T06:01:15;154572.47;;;22.23;100.00
61908;BME280;47864;52.526;19.672;2023-07-13T06:03:17;154578.81;;;22.26;100.00
61908;BME280;47864;52.526;19.672;2023-07-13T06:05:19;154532.94;;;22.08;100.00
61908;BME280;47864;52.526;19.672;2023-07-13T06:07:20;154530.44;;;22.07;100.00
61908;BME280;47864;52.526;19.672;2023-07-13T06:09:22;154650.22;;;22.54;100.00
61908;BME280;47864;52.526;19.672;2023-07-13T06:11:25;154707.59;;;22.77;100.00
61908;BME280;47864;52.526;19.672;2023-07-13T06:13:27;154745.81;;;22.92;100.00
61908;BME280;47864;52.526;19.672;2023-07-13T06:15:28;154768.78;;;23.01;100.00
61908;BME280;47864;52.526;19.672;2023-07-13T06:17:30;154784.06;;;23.07;100.00
61908;BME280;47864;52.526;19.672;2023-07-13T06:19:32;154801.91;;;23.14;100.00
61908;BME280;47864;52.526;19.672;2023-07-13T06:21:33;154798.13;;;23.13;100.00
61908;BME280;47864;52.526;19.672;2023-07-13T06:23:35;154855.47;;;23.36;100.00
61908;BME280;47864;52.526;19.672;2023-07-13T06:25:36;154937.16;;;23.68;100.00
61908;BME280;47864;52.526;19.672;2023-07-13T06:27:38;154962.66;;;23.78;100.00
61908;BME280;47864;52.526;19.672;2023-07-13T06:29:39;155100.47;;;24.33;100.00
61908;BME280;47864;52.526;19.672;2023-07-13T06:31:41;155234.47;;;24.86;100.00
61908;BME280;47864;52.526;19.672;2023-07-13T06:33:43;155314.94;;;25.18;100.00
61908;BME280;47864;52.526;19.672;2023-07-13T06:35:45;155360.91;;;25.36;100.00
61908;BME280;47864;52.526;19.672;2023-07-13T06:37:46;155478.41;;;25.83;100.00
61908;BME280;47864;52.526;19.672;2023-07-13T06:39:48;155408.09;;;25.55;100.00
61908;BME280;47864;52.526;19.672;2023-07-13T06:41:49;155565.25;;;26.18;100.00
61908;BME280;47864;52.526;19.672;2023-07-13T06:43:51;155762.06;;;26.96;100.00
61908;BME280;47864;52.526;19.672;2023-07-13T06:45:55;155708.38;;;26.74;100.00
61908;BME280;47864;52.526;19.672;2023-07-13T06:47:57;155755.72;;;26.93;100.00
61908;BME280;47864;52.526;19.672;2023-07-13T06:49:59;155966.59;;;27.77;97.53
61908;BME280;47864;52.526;19.672;2023-07-13T06:52:02;155776.16;;;27.01;96.79
61908;BME280;47864;52.526;19.672;2023-07-13T06:54:03;155754.44;;;26.93;99.31
61908;BME280;47864;52.526;19.672;2023-07-13T06:56:05;155696.84;;;26.70;98.77
61908;BME280;47864;52.526;19.672;2023-07-13T06:58:07;155772.31;;;27.00;99.35
61908;BME280;47864;52.526;19.672;2023-07-13T07:00:09;155712.22;;;26.76;99.80
61908;BME280;47864;52.526;19.672;2023-07-13T07:02:10;155767.19;;;26.98;100.00
61908;BME280;47864;52.526;19.672;2023-07-13T07:04:12;155621.50;;;26.40;100.00
61908;BME280;47864;52.526;19.672;2023-07-13T07:06:18;155597.22;;;26.30;100.00
61908;BME280;47864;52.526;19.672;2023-07-13T07:08:20;155396.63;;;25.51;100.00
61908;BME280;47864;52.526;19.672;2023-07-13T07:10:21;155506.50;;;25.94;100.00
61908;BME280;47864;52.526;19.672;2023-07-13T07:12:23;155588.28;;;26.27;100.00
61908;BME280;47864;52.526;19.672;2023-07-13T07:14:24;155537.13;;;26.06;100.00
61908;BME280;47864;52.526;19.672;2023-07-13T07:16:26;155429.84;;;25.64;100.00
61908;BME280;47864;52.526;19.672;2023-07-13T07:18:27;155579.28;;;26.23;100.00
61908;BME280;47864;52.526;19.672;2023-07-13T07:20:29;155603.59;;;26.33;100.00
61908;BME280;47864;52.526;19.672;2023-07-13T07:22:30;155523.09;;;26.01;100.00
61908;BME280;47864;52.526;19.672;2023-07-13T07:24:32;155420.94;;;25.60;100.00
61908;BME280;47864;52.526;19.672;2023-07-13T07:26:34;155392.78;;;25.49;100.00
61908;BME280;47864;52.526;19.672;2023-07-13T07:28:55;155357.06;;;25.35;100.00
61908;BME280;47864;52.526;19.672;2023-07-13T07:31:00;155321.28;;;25.21;100.00
61908;BME280;47864;52.526;19.672;2023-07-13T07:33:04;155313.66;;;25.18;100.00
61908;BME280;47864;52.526;19.672;2023-07-13T07:35:06;155456.69;;;25.74;100.00
61908;BME280;47864;52.526;19.672;2023-07-13T07:37:12;155493.72;;;25.89;100.00
61908;BME280;47864;52.526;19.672;2023-07-13T07:39:17;155447.72;;;25.71;100.00
61908;BME280;47864;52.526;19.672;2023-07-13T07:41:18;155436.25;;;25.66;100.00
61908;BME280;47864;52.526;19.672;2023-07-13T07:43:23;155474.56;;;25.82;100.00
61908;BME280;47864;52.526;19.672;2023-07-13T07:45:26;155358.34;;;25.35;100.00
61908;BME280;47864;52.526;19.672;2023-07-13T07:47:27;155369.81;;;25.40;100.00
61908;BME280;47864;52.526;19.672;2023-07-13T07:49:29;155337.91;;;25.27;100.00
61908;BME280;47864;52.526;19.672;2023-07-13T07:51:31;155249.81;;;24.92;100.00
61908;BME280;47864;52.526;19.672;2023-07-13T07:53:32;155261.28;;;24.97;100.00
61908;BME280;47864;52.526;19.672;2023-07-13T07:55:34;155377.47;;;25.43;100.00
61908;BME280;47864;52.526;19.672;2023-07-13T07:57:39;155396.63;;;25.51;100.00
61908;BME280;47864;52.526;19.672;2023-07-13T07:59:43;155410.66;;;25.56;100.00
61908;BME280;47864;52.526;19.672;2023-07-13T08:01:48;155427.28;;;25.63;100.00
61908;BME280;47864;52.526;19.672;2023-07-13T08:03:52;155521.81;;;26.00;100.00
61908;BME280;47864;52.526;19.672;2023-07-13T08:05:56;155491.16;;;25.88;100.00
61908;BME280;47864;52.526;19.672;2023-07-13T08:08:18;155447.72;;;25.71;100.00
61908;BME280;47864;52.526;19.672;2023-07-13T08:10:20;155400.47;;;25.52;100.00
61908;BME280;47864;52.526;19.672;2023-07-13T08:12:21;155399.19;;;25.52;100.00
61908;BME280;47864;52.526;19.672;2023-07-13T08:14:26;155360.91;;;25.36;100.00
61908;BME280;47864;52.526;19.672;2023-07-13T08:16:47;155337.91;;;25.27;100.00
61908;BME280;47864;52.526;19.672;2023-07-13T08:18:48;155415.78;;;25.58;100.00
61908;BME280;47864;52.526;19.672;2023-07-13T08:20:50;155385.09;;;25.46;100.00
61908;BME280;47864;52.526;19.672;2023-07-13T08:22:52;155390.22;;;25.48;100.00
61908;BME280;47864;52.526;19.672;2023-07-13T08:24:53;155372.38;;;25.41;100.00
61908;BME280;47864;52.526;19.672;2023-07-13T08:26:55;155428.56;;;25.63;100.00
61908;BME280;47864;52.526;19.672;2023-07-13T08:28:56;155558.84;;;26.15;100.00
61908;BME280;47864;52.526;19.672;2023-07-13T08:31:05;155427.28;;;25.63;100.00
61908;BME280;47864;52.526;19.672;2023-07-13T08:33:07;155411.94;;;25.57;100.00
61908;BME280;47864;52.526;19.672;2023-07-13T08:35:09;155496.28;;;25.90;100.00
61908;BME280;47864;52.526;19.672;2023-07-13T08:37:10;155482.25;;;25.85;100.00
61908;BME280;47864;52.526;19.672;2023-07-13T08:39:12;155548.59;;;26.11;100.00
61908;BME280;47864;52.526;19.672;2023-07-13T08:41:16;155643.19;;;26.48;100.00
61908;BME280;47864;52.526;19.672;2023-07-13T08:43:22;155632.97;;;26.44;97.84
61908;BME280;47864;52.526;19.672;2023-07-13T08:45:38;155658.53;;;26.55;99.36
61908;BME280;47864;52.526;19.672;2023-07-13T08:47:48;155627.88;;;26.42;98.09
61908;BME280;47864;52.526;19.672;2023-07-13T08:49:53;155563.97;;;26.17;97.85
61908;BME280;47864;52.526;19.672;2023-07-13T08:52:02;155597.22;;;26.30;98.14
61908;BME280;47864;52.526;19.672;2023-07-13T08:54:22;155593.38;;;26.29;98.45
61908;BME280;47864;52.526;19.672;2023-07-13T08:56:30;155595.94;;;26.30;96.44
61908;BME280;47864;52.526;19.672;2023-07-13T08:58:32;155540.97;;;26.08;96.81
61908;BME280;47864;52.526;19.672;2023-07-13T09:05:00;155544.81;;;26.09;99.01
61908;BME280;47864;52.526;19.672;2023-07-13T09:07:14;155553.72;;;26.13;96.60
61908;BME280;47864;52.526;19.672;2023-07-13T09:11:56;155482.25;;;25.85;97.87
61908;BME280;47864;52.526;19.672;2023-07-13T09:14:09;;;;25.84;
61908;BME280;47864;52.526;19.672;2023-07-13T09:16:16;155401.75;;;25.53;97.00
61908;BME280;47864;52.526;19.672;2023-07-13T09:18:33;155397.91;;;25.51;100.00
61908;BME280;47864;52.526;19.672;2023-07-13T09:20:42;155427.28;;;25.63;95.39
61908;BME280;47864;52.526;19.672;2023-07-13T09:22:46;155486.03;;;25.86;96.53
61908;BME280;47864;52.526;19.672;2023-07-13T09:25:21;155524.38;;;26.01;94.43
61908;BME280;47864;52.526;19.672;2023-07-13T09:27:21;155534.56;;;26.05;94.13
61908;BME280;47864;52.526;19.672;2023-07-13T09:29:32;155639.38;;;26.47;89.71
61908;BME280;47864;52.526;19.672;2023-07-13T09:31:44;155551.16;;;26.12;88.65
61908;BME280;47864;52.526;19.672;2023-07-13T09:33:47;155495.00;;;25.90;89.56
61908;BME280;47864;52.526;19.672;2023-07-13T09:35:49;155475.84;;;25.82;88.66
61908;BME280;47864;52.526;19.672;2023-07-13T09:37:50;155484.78;;;25.86;87.19
61908;BME280;47864;52.526;19.672;2023-07-13T09:39:52;155464.38;;;25.77;88.52
61908;BME280;47864;52.526;19.672;2023-07-13T09:41:57;155446.44;;;25.70;87.38
61908;BME280;47864;52.526;19.672;2023-07-13T09:44:15;155427.28;;;25.63;87.75
61908;BME280;47864;52.526;19.672;2023-07-13T09:46:21;155380.03;;;25.44;84.55
61908;BME280;47864;52.526;19.672;2023-07-13T09:48:23;155378.75;;;25.44;83.74
61908;BME280;47864;52.526;19.672;2023-07-13T09:50:24;155317.47;;;25.19;82.78
61908;BME280;47864;52.526;19.672;2023-07-13T09:52:27;155297.06;;;25.11;84.22
61908;BME280;47864;52.526;19.672;2023-07-13T09:54:29;155266.41;;;24.99;78.69
61908;BME280;47864;52.526;19.672;2023-07-13T09:56:31;155313.66;;;25.18;80.59
61908;BME280;47864;52.526;19.672;2023-07-13T09:58:34;155340.41;;;25.28;75.81
61908;BME280;47864;52.526;19.672;2023-07-13T10:00:36;155265.13;;;24.98;75.46
61908;BME280;47864;52.526;19.672;2023-07-13T10:02:38;155284.28;;;25.06;75.86
61908;BME280;47864;52.526;19.672;2023-07-13T10:04:39;155280.44;;;25.05;75.78
61908;BME280;47864;52.526;19.672;2023-07-13T10:06:41;155253.66;;;24.94;75.46
61908;BME280;47864;52.526;19.672;2023-07-13T10:08:44;155235.75;;;24.87;76.02
61908;BME280;47864;52.526;19.672;2023-07-13T10:10:52;155222.97;;;24.82;78.48
61908;BME280;47864;52.526;19.672;2023-07-13T10:12:54;155214.06;;;24.78;76.63
61908;BME280;47864;52.526;19.672;2023-07-13T10:14:58;155233.19;;;24.86;79.52
61908;BME280;47864;52.526;19.672;2023-07-13T10:17:27;155262.56;;;24.97;78.19
61908;BME280;47864;52.526;19.672;2023-07-13T10:19:32;155257.44;;;24.95;76.81
61908;BME280;47864;52.526;19.672;2023-07-13T10:21:57;155337.91;;;25.27;77.99
61908;BME280;47864;52.526;19.672;2023-07-13T10:24:20;155236.97;;;24.87;78.52
61908;BME280;47864;52.526;19.672;2023-07-13T10:26:26;155230.63;;;24.85;81.98
61908;BME280;47864;52.526;19.672;2023-07-13T10:28:37;155290.66;;;25.09;78.31
61908;BME280;47864;52.526;19.672;2023-07-13T10:30:42;155337.91;;;25.27;76.99
61908;BME280;47864;52.526;19.672;2023-07-13T10:32:47;155385.09;;;25.46;76.02
61908;BME280;47864;52.526;19.672;2023-07-13T10:34:49;155365.97;;;25.38;76.50
61908;BME280;47864;52.526;19.672;2023-07-13T10:36:52;155392.78;;;25.49;73.55
61908;BME280;47864;52.526;19.672;2023-07-13T10:38:55;155348.09;;;25.31;74.66